Latest Weather Observations for Bourke

IDN60801

Issued at 10:02 am EST Friday 29 May 2015 (issued every 30 minutes, with the page automatically refreshed every 10 minutes)

About weather observations | Map of weather stations | Latest weather observations for NSW | Other Formats
Station Details ID: 048245 Name: BOURKE AIRPORT AWS Lat: -30.04 Lon: 145.95 Height: 107.3 m
Data from the previous 72 hours. | See also: Recent months at Bourke
Date/Time
EST
Temp
°C
App
Temp
°C
Dew
Point
Rel
Hum
%
Delta-T
°C
Wind Press
QNH
hPa
Press
MSL
hPa
Rain
since 9 am
mm
Dir
 
Spd
km/h
Gust
km/h
Spd
kts
Gust
kts
29/10:00am 16.9 17.1 15.8 93 0.6 S 9 13 5 7 1024.4 1024.3 0.2
29/09:30am 16.7 16.9 15.7 94 0.6 SSE 9 13 5 7 1024.0 1023.9 0.0
29/09:00am 16.5 17.1 15.7 95 0.5 S 7 11 4 6 1024.1 1024.0 0.6
29/08:30am 16.3 16.9 15.7 96 0.4 SSW 7 11 4 6 1023.9 1023.8 0.6
29/08:00am 16.0 15.7 15.4 96 0.3 SSW 11 13 6 7 1023.3 1023.2 0.6
29/07:30am 15.9 17.6 15.1 95 0.5 CALM 0 0 0 0 1023.0 1022.9 0.6
29/07:00am 15.8 17.4 15.0 95 0.5 CALM 0 0 0 0 1022.7 1022.6 0.2
29/06:30am 15.7 16.2 14.9 95 0.5 SW 6 7 3 4 1022.4 1022.3 0.2
29/06:00am 16.0 16.4 15.2 95 0.5 SSW 7 9 4 5 1022.0 1021.9 0.2
29/05:30am 16.0 17.6 15.0 94 0.6 CALM 0 0 0 0 1021.6 1021.5 0.2
29/05:00am 16.0 16.5 15.0 94 0.6 SE 6 7 3 4 1021.5 1021.4 0.2
29/04:30am 16.1 17.3 15.0 93 0.6 SSW 2 6 1 3 1021.4 1021.3 0.2
29/04:00am 16.2 16.8 15.2 94 0.6 SW 6 7 3 4 1021.7 1021.6 0.2
29/03:30am 16.3 17.9 15.0 92 0.8 CALM 0 6 0 3 1021.4 1021.3 0.2
29/03:00am 16.4 16.9 15.1 92 0.8 S 6 7 3 4 1021.2 1021.1 0.2
29/02:30am 16.5 16.5 15.2 92 0.8 S 9 11 5 6 1021.3 1021.2 0.2
29/02:00am 16.5 16.5 15.2 92 0.8 SSE 9 11 5 6 1021.2 1021.1 0.2
29/01:30am 16.7 16.7 15.2 91 0.9 S 9 13 5 7 1021.5 1021.4 0.2
29/01:00am 16.8 16.4 15.3 91 0.9 S 11 15 6 8 1021.5 1021.4 0.2
29/12:30am 16.9 16.1 15.2 90 1.0 SSW 13 17 7 9 1021.7 1021.6 0.2
29/12:00am 17.1 16.4 15.3 89 1.0 SSW 13 17 7 9 1022.0 1021.9 0.2
 
Date/Time
EST
Temp
°C
App
Temp
°C
Dew
Point
Rel
Hum
%
Delta-T
°C
Wind Press
QNH
hPa
Press
MSL
hPa
Rain
since 9 am
mm
Dir
 
Spd
km/h
Gust
km/h
Spd
kts
Gust
kts
28/11:30pm 17.2 16.4 15.2 88 1.2 SSW 13 17 7 9 1022.3 1022.2 0.2
28/11:00pm 17.4 16.3 15.4 88 1.2 SSW 15 20 8 11 1022.3 1022.2 0.2
28/10:30pm 17.7 16.1 15.1 85 1.5 SSW 17 24 9 13 1022.5 1022.4 0.0
28/10:00pm 18.4 16.2 14.5 78 2.3 SW 19 30 10 16 1022.5 1022.4 0.0
28/09:34pm 18.3 14.4 14.4 78 2.3 SW 28 43 15 23 1022.6 1022.5 0.0
28/09:30pm 18.2 13.4 13.9 76 2.5 SW 32 46 17 25 1022.6 1022.5 0.0
28/09:25pm 19.2 15.6 13.2 68 3.4 WSW 24 46 13 25 1022.4 1022.3 0.0
28/09:00pm 20.5 20.6 10.3 52 5.5 CALM 0 0 0 0 1021.3 1021.2 0.0
28/08:30pm 20.7 19.9 9.6 49 6.0 E 4 6 2 3 1020.8 1020.7 0.0
28/08:00pm 21.1 18.9 9.4 47 6.3 ENE 11 13 6 7 1020.5 1020.4 0.0
28/07:30pm 21.0 18.9 9.9 49 6.0 NE 11 13 6 7 1020.5 1020.4 0.0
28/07:00pm 20.8 19.1 10.0 50 5.8 NE 9 11 5 6 1020.4 1020.3 0.0
28/06:30pm 21.5 20.1 9.7 47 6.4 ENE 7 9 4 5 1020.3 1020.2 0.0
28/06:00pm 21.9 20.6 9.8 46 6.6 ENE 7 9 4 5 1020.1 1020.0 0.0
28/05:30pm 22.7 21.0 8.4 40 7.6 N 7 9 4 5 1020.0 1019.9 0.0
28/05:00pm 23.9 21.4 8.3 37 8.3 N 11 13 6 7 1019.7 1019.6 0.0
28/04:30pm 24.5 21.5 7.6 34 8.9 N 13 20 7 11 1019.4 1019.3 0.0
28/04:00pm 24.9 22.0 8.0 34 9.0 N 13 15 7 8 1019.5 1019.4 0.0
28/03:30pm 25.1 21.8 8.1 34 9.1 N 15 20 8 11 1019.6 1019.5 0.0
28/03:00pm 24.8 21.0 7.4 33 9.2 N 17 22 9 12 1019.5 1019.4 0.0
28/02:30pm 25.7 22.8 8.2 33 9.4 NNE 13 20 7 11 1019.6 1019.5 0.0
28/02:00pm 25.5 21.7 7.6 32 9.5 N 17 28 9 15 1019.8 1019.7 0.0
28/01:30pm 25.3 21.6 7.9 33 9.3 N 17 28 9 15 1019.8 1019.7 0.0
28/01:00pm 25.2 21.0 8.2 34 9.1 NNE 20 32 11 17 1020.1 1020.0 0.0
28/12:30pm 23.7 19.6 7.8 36 8.4 N 19 24 10 13 1021.0 1020.9 0.0
28/12:00pm 22.8 19.7 8.9 41 7.4 NNE 15 20 8 11 1021.9 1021.8 0.0
28/11:30am 21.5 18.9 9.4 46 6.5 NNE 13 17 7 9 1022.8 1022.7 0.0
28/11:00am 20.1 17.4 10.2 53 5.3 NNE 15 19 8 10 1022.8 1022.7 0.0
28/10:30am 19.2 16.6 10.7 58 4.6 NNE 15 20 8 11 1023.4 1023.3 0.0
28/10:00am 18.6 16.3 11.7 64 3.8 NE 15 20 8 11 1023.5 1023.4 0.0
28/09:30am 18.1 17.1 13.4 74 2.7 ENE 11 15 6 8 1023.5 1023.4 0.0
28/09:00am 16.5 15.3 14.0 85 1.4 E 13 17 7 9 1023.5 1023.4 0.8
28/08:30am 15.6 14.7 13.8 89 1.0 SE 11 13 6 7 1023.3 1023.2 0.8
28/08:00am 15.4 14.8 13.6 89 1.0 SSE 9 11 5 6 1023.1 1023.0 0.8
28/07:30am 15.5 14.8 13.3 87 1.2 S 9 9 5 5 1023.0 1022.9 0.8
28/07:00am 15.3 15.0 13.3 88 1.1 NE 7 9 4 5 1022.4 1022.3 0.8
28/06:30am 15.3 14.6 13.1 87 1.2 E 9 11 5 6 1021.8 1021.7 0.8
28/06:00am 15.3 14.6 13.3 88 1.1 E 9 11 5 6 1021.4 1021.3 0.8
28/05:30am 15.3 14.6 13.3 88 1.1 ENE 9 11 5 6 1021.3 1021.2 0.8
28/05:00am 15.5 14.5 13.5 88 1.1 ENE 11 15 6 8 1021.3 1021.2 0.8
28/04:30am 15.4 14.5 13.8 90 0.9 ENE 11 13 6 7 1021.3 1021.2 0.8
28/04:00am 15.1 14.9 13.6 91 0.8 ENE 7 11 4 6 1021.2 1021.1 0.8
28/03:30am 15.0 14.4 13.5 91 0.8 E 9 11 5 6 1021.3 1021.2 0.8
28/03:00am 15.1 14.5 13.5 90 0.9 E 9 11 5 6 1021.2 1021.1 0.8
28/02:30am 15.4 14.5 13.6 89 1.0 E 11 13 6 7 1021.5 1021.4 0.8
28/02:00am 15.4 14.9 13.9 91 0.8 E 9 11 5 6 1021.7 1021.6 0.8
28/01:30am 15.5 15.0 13.9 90 0.9 E 9 11 5 6 1021.7 1021.6 0.8
28/01:00am 15.4 14.5 13.8 90 0.9 ESE 11 15 6 8 1022.0 1021.9 0.8
28/12:30am 15.6 14.4 14.0 90 0.9 ESE 13 15 7 8 1022.2 1022.1 0.8
28/12:00am 15.6 14.0 14.0 90 0.9 SE 15 20 8 11 1022.2 1022.1 0.6
 
Date/Time
EST
Temp
°C
App
Temp
°C
Dew
Point
Rel
Hum
%
Delta-T
°C
Wind Press
QNH
hPa
Press
MSL
hPa
Rain
since 9 am
mm
Dir
 
Spd
km/h
Gust
km/h
Spd
kts
Gust
kts
27/11:30pm 15.6 13.6 14.0 90 0.9 SSE 17 20 9 11 1022.5 1022.4 0.6
27/11:00pm 16.2 14.9 13.7 85 1.4 SSE 13 17 7 9 1022.9 1022.8 0.4
27/10:30pm 16.5 15.6 13.8 84 1.5 SSE 11 13 6 7 1022.9 1022.8 0.4
27/10:00pm 16.4 15.6 14.1 86 1.3 SE 11 15 6 8 1022.8 1022.7 0.4
27/09:30pm 16.7 16.2 13.8 83 1.6 SSE 9 11 5 6 1022.9 1022.8 0.2
27/09:00pm 16.9 16.4 13.8 82 1.8 SE 9 11 5 6 1022.7 1022.6 0.2
27/08:30pm 16.7 16.3 14.2 85 1.4 SE 9 11 5 6 1022.4 1022.3 0.2
27/08:00pm 16.9 16.7 13.6 81 1.9 SSE 7 11 4 6 1022.4 1022.3 0.2
27/07:30pm 17.1 16.0 13.2 78 2.2 SSE 11 17 6 9 1022.2 1022.1 0.2
27/07:00pm 17.6 15.6 12.7 73 2.7 SSE 15 19 8 10 1022.0 1021.9 0.0
27/06:30pm 18.6 16.3 11.9 65 3.7 SSE 15 20 8 11 1021.9 1021.8 0.0
27/06:00pm 19.6 16.7 10.9 57 4.7 SSE 17 22 9 12 1021.5 1021.4 0.0
27/05:30pm 20.3 17.2 10.4 53 5.4 SSE 17 22 9 12 1021.3 1021.2 0.0
27/05:00pm 20.8 17.1 10.3 51 5.7 SSE 20 26 11 14 1021.1 1021.0 0.0
27/04:30pm 21.6 18.5 10.4 49 6.1 S 17 20 9 11 1021.2 1021.1 0.0
27/04:00pm 22.1 19.5 10.6 48 6.3 S 15 20 8 11 1021.0 1020.9 0.0
27/03:30pm 22.1 18.6 10.3 47 6.5 S 19 24 10 13 1021.2 1021.1 0.0
27/03:00pm 23.0 19.9 10.4 45 6.9 SSW 17 24 9 13 1021.2 1021.1 0.0
27/02:30pm 23.5 21.2 10.6 44 7.2 SSW 13 19 7 10 1021.2 1021.1 0.0
27/02:00pm 23.8 22.7 10.5 43 7.4 WSW 7 17 4 9 1021.3 1021.2 0.0
27/01:30pm 23.2 21.6 10.3 44 7.1 WSW 9 17 5 9 1021.6 1021.5 0.0
27/01:00pm 23.1 20.4 10.2 44 7.1 W 15 22 8 12 1022.1 1022.0 0.0
27/12:30pm 23.6 22.0 10.3 43 7.4 NW 9 17 5 9 1022.4 1022.3 0.0
27/12:00pm 22.8 21.1 9.9 44 7.0 NW 9 13 5 7 1022.9 1022.8 0.0
27/11:30am 21.9 20.3 10.1 47 6.4 NNW 9 13 5 7 1023.5 1023.4 0.0
27/11:00am 21.3 19.2 9.9 48 6.2 N 11 19 6 10 1023.8 1023.7 0.0
27/10:30am 20.6 18.3 10.4 52 5.6 N 13 19 7 10 1024.1 1024.0 0.0
27/10:00am 18.5 16.2 10.3 59 4.4 NNE 13 17 7 9 1024.1 1024.0 0.0
27/09:30am 17.2 14.1 10.3 64 3.7 NNE 17 26 9 14 1024.0 1023.9 0.0
27/09:00am 15.6 13.3 10.6 72 2.6 NE 13 17 7 9 1024.0 1023.9 0.0
27/08:30am 14.5 12.5 10.1 75 2.3 NE 11 15 6 8 1024.2 1024.1 0.0
27/08:00am 14.1 12.0 9.9 76 2.2 ENE 11 15 6 8 1024.0 1023.9 0.0
27/07:30am 12.2 10.0 9.4 83 1.4 ENE 11 13 6 7 1023.6 1023.5 0.0
27/07:00am 11.9 9.6 8.9 82 1.5 ENE 11 17 6 9 1023.4 1023.3 0.0
27/06:30am 12.2 9.9 9.0 81 1.6 ENE 11 15 6 8 1023.4 1023.3 0.0
27/06:00am 12.3 10.4 9.1 81 1.6 ENE 9 11 5 6 1023.2 1023.1 0.0
27/05:30am 12.4 10.1 9.1 80 1.7 E 11 13 6 7 1023.0 1022.9 0.0
27/05:00am 12.8 10.5 9.1 78 1.9 E 11 13 6 7 1022.8 1022.7 0.0
27/04:30am 12.8 10.5 8.9 77 2.0 E 11 15 6 8 1022.8 1022.7 0.0
27/04:00am 13.0 10.7 8.9 76 2.1 E 11 15 6 8 1023.0 1022.9 0.0
27/03:30am 12.6 10.7 8.9 78 1.9 E 9 13 5 7 1023.2 1023.1 0.0
27/03:00am 12.2 10.1 8.3 77 1.9 E 9 9 5 5 1023.3 1023.2 0.0
27/02:30am 12.4 10.3 8.3 76 2.0 ESE 9 11 5 6 1023.4 1023.3 0.0
27/02:00am 12.6 10.5 8.3 75 2.1 ESE 9 11 5 6 1023.8 1023.7 0.0
27/01:30am 13.1 10.6 8.4 73 2.4 SE 11 11 6 6 1024.0 1023.9 0.0
27/01:00am 13.3 11.6 8.2 71 2.5 ESE 7 9 4 5 1024.2 1024.1 0.0
27/12:30am 14.2 12.2 8.6 69 2.8 ESE 9 11 5 6 1024.3 1024.2 0.0
27/12:00am 14.2 12.1 8.4 68 2.9 ESE 9 11 5 6 1024.3 1024.2 0.0
 
Date/Time
EST
Temp
°C
App
Temp
°C
Dew
Point
Rel
Hum
%
Delta-T
°C
Wind Press
QNH
hPa
Press
MSL
hPa
Rain
since 9 am
mm
Dir
 
Spd
km/h
Gust
km/h
Spd
kts
Gust
kts
26/11:30pm 15.2 12.8 8.7 65 3.3 E 11 13 6 7 1024.4 1024.3 0.0
26/11:00pm 15.7 13.0 9.1 65 3.4 ESE 13 17 7 9 1024.3 1024.2 0.0
26/10:30pm 16.5 13.9 9.2 62 3.8 ESE 13 17 7 9 1024.9 1024.8 0.0
26/10:00pm 16.8 13.7 9.0 60 4.0 ESE 15 20 8 11 1024.7 1024.6 0.0
26/09:30pm 16.5 14.1 8.7 60 4.0 ESE 11 13 6 7 1024.8 1024.7 0.0
26/09:00pm 16.4 13.9 8.1 58 4.2 ESE 11 13 6 7 1024.7 1024.6 0.0
26/08:30pm 17.1 14.6 8.0 55 4.6 SE 11 13 6 7 1024.9 1024.8 0.0
26/08:00pm 17.8 15.0 8.4 54 4.8 ESE 13 15 7 8 1024.7 1024.6 0.0
26/07:30pm 16.9 14.1 8.6 58 4.3 ESE 13 13 7 7 1024.6 1024.5 0.0
26/07:00pm 16.8 14.4 8.5 58 4.2 ESE 11 13 6 7 1024.4 1024.3 0.0
26/06:30pm 17.1 14.6 8.3 56 4.5 ESE 11 11 6 6 1024.2 1024.1 0.0
26/06:00pm 18.2 16.1 8.2 52 5.1 E 9 9 5 5 1024.0 1023.9 0.0
26/05:30pm 19.8 17.4 8.5 48 5.9 ESE 11 17 6 9 1023.8 1023.7 0.0
26/05:00pm 21.1 18.0 8.7 45 6.5 ESE 15 20 8 11 1023.7 1023.6 0.0
26/04:30pm 21.8 18.3 8.7 43 7.0 ESE 17 26 9 14 1023.6 1023.5 0.0
26/04:00pm 22.5 18.6 8.6 41 7.4 E 19 24 10 13 1023.7 1023.6 0.0
26/03:30pm 22.3 18.3 8.1 40 7.5 E 19 24 10 13 1023.6 1023.5 0.0
26/03:00pm 22.2 18.5 8.0 40 7.4 E 17 20 9 11 1024.0 1023.9 0.0
26/02:30pm 22.2 18.9 8.0 40 7.5 E 15 20 8 11 1024.0 1023.9 0.0
26/02:00pm 22.4 19.4 7.8 39 7.6 E 13 20 7 11 1024.5 1024.4 0.0
26/01:30pm 22.3 19.4 8.1 40 7.5 E 13 19 7 10 1024.9 1024.8 0.0
26/01:00pm 22.8 19.7 8.9 41 7.4 E 15 20 8 11 1025.0 1024.9 0.0
26/12:30pm 21.9 18.3 8.4 42 7.1 ENE 17 24 9 13 1025.6 1025.5 0.0
26/12:00pm 21.2 17.8 9.1 46 6.4 ENE 17 20 9 11 1026.2 1026.1 0.0
26/11:30am 20.2 17.6 9.2 49 5.9 ENE 13 15 7 8 1027.1 1027.0 0.0
26/11:00am 19.2 16.5 8.8 51 5.4 ENE 13 19 7 10 1027.5 1027.5 0.0
26/10:30am 18.9 15.4 8.8 52 5.3 ENE 17 24 9 13 1027.4 1027.4 0.0

Other Formats:

Comma delimited format used in spreadsheet applications
http://www.bom.gov.au/fwo/IDN60801/IDN60801.94703.axf

JavaScript Object Notation format (JSON) in row-major order
http://www.bom.gov.au/fwo/IDN60801/IDN60801.94703.json